WS45 weather

Circle K Airport
Irma, Wisconsin, United States

Public forecast

Using degrees Fahrenheit for public forecast. Weather courtesy of forecast.io.

Closest aviation weather report (METAR) to Circle K Airport

Closest report is Merrill Municipal Airport, 8.7 nm (16.1 km) S. Retrieved 2020/02/19 06:35 UTC (7 minutes ago):

KRRL 190635Z AUTO 30003KT 10SM CLR M15/M21 A3039 RMK AO2 T11521212 TSNO

Closest aviation forecast (TAF) to Circle K Airport

Closest forecast is Rhinelander Oneida County Airport, 19.5 nm (36.0 km) NNE. Retrieved 2020/02/19 06:22 UTC (20 minutes ago):

TAF KRHI 190520Z 1906/2006 30008G16KT P6SM SKC FM190700 30005KT P6SM SKC